createdAt,value
2022-11-11T00:00:37.521Z,44.8710
2022-11-11T00:01:39.798Z,44.8850
2022-11-11T00:02:42.121Z,44.8970
2022-11-11T00:03:42.239Z,44.9170
2022-11-11T00:04:44.562Z,44.8910
2022-11-11T00:05:46.759Z,44.9190
2022-11-11T00:06:49.083Z,44.7830
2022-11-11T00:07:51.432Z,44.7990
2022-11-11T00:08:53.609Z,44.8490
2022-11-11T00:09:55.929Z,44.9190
2022-11-11T00:10:56.037Z,44.9510
2022-11-11T00:11:58.321Z,44.9690
2022-11-11T00:13:00.623Z,44.9250
2022-11-11T00:14:02.898Z,44.9130
2022-11-11T00:15:05.176Z,44.9630
2022-11-11T00:16:07.450Z,44.8910
2022-11-11T00:17:09.766Z,44.8670
2022-11-11T00:18:09.977Z,44.8670
2022-11-11T00:19:12.222Z,44.8170
2022-11-11T00:20:14.669Z,44.7990
2022-11-11T00:21:16.812Z,44.8050
2022-11-11T00:22:19.132Z,44.7350
2022-11-11T00:23:21.525Z,44.7230
2022-11-11T00:24:23.699Z,44.6950
2022-11-11T00:25:24.085Z,44.7310
2022-11-11T00:26:39.269Z,44.7150
2022-11-11T00:28:28.843Z,44.9130
2022-11-11T00:29:31.096Z,44.8730
2022-11-11T00:30:31.301Z,44.8330
2022-11-11T00:31:33.575Z,44.8170
2022-11-11T00:32:35.925Z,44.8030
2022-11-11T00:33:38.277Z,44.7970
2022-11-11T00:34:38.440Z,44.8370
2022-11-11T00:35:40.851Z,44.7530
2022-11-11T00:36:44.761Z,44.7410
2022-11-11T00:37:45.450Z,44.8090
2022-11-11T00:38:47.824Z,44.8370
2022-11-11T00:39:50.097Z,44.8030
2022-11-11T00:40:52.373Z,44.8110
2022-11-11T00:41:52.561Z,44.7930
2022-11-11T00:42:54.928Z,44.7810
2022-11-11T00:43:57.181Z,44.8170
2022-11-11T00:44:59.555Z,44.8430
2022-11-11T00:46:01.915Z,44.8210
2022-11-11T00:47:04.138Z,44.8310
2022-11-11T00:48:04.307Z,44.8330
2022-11-11T00:49:06.606Z,44.8650
2022-11-11T00:50:08.988Z,44.8450
2022-11-11T00:51:11.364Z,44.7930
2022-11-11T00:52:13.635Z,44.7510
2022-11-11T00:53:13.784Z,44.8030
2022-11-11T00:54:16.277Z,44.7910
2022-11-11T00:55:18.491Z,44.7930
2022-11-11T00:56:20.865Z,44.7310
2022-11-11T00:57:23.037Z,44.7130
2022-11-11T00:58:25.737Z,44.7910
2022-11-11T00:59:25.586Z,44.7810
2022-11-11T01:00:27.863Z,44.7430
2022-11-11T01:01:30.311Z,44.7350
2022-11-11T01:02:32.550Z,44.7880
2022-11-11T01:03:34.855Z,44.8050
2022-11-11T01:04:37.166Z,44.7680
2022-11-11T01:05:39.449Z,44.8110
2022-11-11T01:06:41.914Z,44.7820
2022-11-11T01:07:44.054Z,44.8040
2022-11-11T01:08:46.313Z,44.7640
2022-11-11T01:09:48.722Z,44.7510
2022-11-11T01:10:50.902Z,44.7510
2022-11-11T01:11:51.201Z,44.7640
2022-11-11T01:12:53.375Z,44.7520
2022-11-11T01:13:55.671Z,44.6700
2022-11-11T01:14:57.986Z,44.6340
2022-11-11T01:16:00.329Z,44.6740
2022-11-11T01:17:02.838Z,44.7100
2022-11-11T01:18:02.784Z,44.7080
2022-11-11T01:19:05.149Z,44.7640
2022-11-11T01:20:07.357Z,44.7620
2022-11-11T01:21:09.621Z,44.7440
2022-11-11T01:22:11.974Z,44.7140
2022-11-11T01:23:14.272Z,44.6680
2022-11-11T01:24:16.403Z,44.6100
2022-11-11T01:25:18.800Z,44.5960
2022-11-11T01:26:18.771Z,44.6000
2022-11-11T01:27:21.240Z,44.6600
2022-11-11T01:28:23.737Z,44.6840
2022-11-11T01:29:25.583Z,44.7020
2022-11-11T01:30:27.912Z,44.7300
2022-11-11T01:31:30.067Z,44.7340
2022-11-11T01:32:32.342Z,44.6600
2022-11-11T01:33:34.571Z,44.6460
2022-11-11T01:34:36.660Z,44.6400
2022-11-11T01:35:38.884Z,44.6840
2022-11-11T01:36:41.243Z,44.6500
2022-11-11T01:37:43.414Z,44.5540
2022-11-11T01:38:45.613Z,44.4340
2022-11-11T01:39:47.747Z,44.4280
2022-11-11T01:40:50.263Z,44.4080
2022-11-11T01:41:52.317Z,44.4240
2022-11-11T01:42:54.752Z,44.4900
2022-11-11T01:43:56.914Z,44.5540
2022-11-11T01:44:59.177Z,44.6100
2022-11-11T01:45:59.276Z,44.6380
2022-11-11T01:47:01.522Z,44.7180
2022-11-11T01:48:33.921Z,44.7000
2022-11-11T01:49:06.149Z,44.7300
2022-11-11T01:50:08.428Z,44.6560
2022-11-11T01:51:10.742Z,44.6740
2022-11-11T01:52:13.079Z,44.7340
2022-11-11T01:53:15.454Z,44.6940
2022-11-11T01:54:15.360Z,44.6560
2022-11-11T01:55:17.764Z,44.6660
2022-11-11T01:56:20.091Z,44.5820
2022-11-11T01:57:22.287Z,44.5140
2022-11-11T01:58:24.662Z,44.5200
2022-11-11T01:59:26.865Z,44.5760
2022-11-11T02:00:29.326Z,44.5920
2022-11-11T02:01:29.414Z,44.6160
2022-11-11T02:02:31.762Z,44.5760
2022-11-11T02:03:34.219Z,44.5820
2022-11-11T02:04:36.393Z,44.6340
2022-11-11T02:05:38.662Z,44.5980
2022-11-11T02:06:40.928Z,44.5400
2022-11-11T02:07:41.264Z,44.5340
2022-11-11T02:08:43.448Z,44.5300
2022-11-11T02:09:45.726Z,44.5600
2022-11-11T02:10:47.829Z,44.6140
2022-11-11T02:11:50.273Z,44.6140
2022-11-11T02:12:52.595Z,44.6260
2022-11-11T02:13:52.904Z,44.6040
2022-11-11T02:14:54.890Z,44.6620
2022-11-11T02:15:57.203Z,44.6280
2022-11-11T02:16:59.623Z,44.6000
2022-11-11T02:18:01.793Z,44.6000
2022-11-11T02:19:04.202Z,44.6260
2022-11-11T02:20:06.346Z,44.6720
2022-11-11T02:21:06.600Z,44.7300
2022-11-11T02:22:08.848Z,44.6420
2022-11-11T02:23:11.007Z,44.5480
2022-11-11T02:24:49.925Z,44.6480
2022-11-11T02:25:52.080Z,44.6080
2022-11-11T02:26:58.346Z,44.5260
2022-11-11T02:27:54.524Z,44.4790
2022-11-11T02:28:56.882Z,44.4130
2022-11-11T02:29:59.153Z,44.4470
2022-11-11T02:31:01.392Z,44.4290
2022-11-11T02:32:03.734Z,44.4630
2022-11-11T02:33:05.922Z,44.4630
2022-11-11T02:34:08.216Z,44.4330
2022-11-11T02:35:08.469Z,44.4900
2022-11-11T02:36:10.640Z,44.4730
2022-11-11T02:37:13.039Z,44.4730
2022-11-11T02:38:15.482Z,44.5090
2022-11-11T02:39:23.303Z,44.5890
2022-11-11T02:40:20.153Z,44.6040
2022-11-11T02:41:20.208Z,44.5190
2022-11-11T02:42:22.688Z,44.5280
2022-11-11T02:43:25.298Z,44.5070
2022-11-11T02:44:27.392Z,44.4730
2022-11-11T02:45:29.634Z,44.4610
2022-11-11T02:46:29.725Z,44.5030
2022-11-11T02:47:32.062Z,44.4850
2022-11-11T02:48:34.414Z,44.5130
2022-11-11T02:49:36.802Z,44.5760
2022-11-11T02:50:36.977Z,44.6080
2022-11-11T02:51:39.320Z,44.5520
2022-11-11T02:52:41.431Z,44.4810
2022-11-11T02:53:43.736Z,44.4670
2022-11-11T02:54:45.987Z,44.5310
2022-11-11T02:55:48.392Z,44.5090
2022-11-11T02:56:50.693Z,44.4550
2022-11-11T02:57:53.011Z,44.4910
2022-11-11T02:58:52.929Z,44.4730
2022-11-11T02:59:55.341Z,44.4450
2022-11-11T03:00:57.766Z,44.4270
2022-11-11T03:01:59.958Z,44.5030
2022-11-11T03:03:02.483Z,44.4950
2022-11-11T03:04:04.696Z,44.5250
2022-11-11T03:05:06.767Z,44.5530
2022-11-11T03:06:07.269Z,44.6130
2022-11-11T03:07:09.611Z,44.6030
2022-11-11T03:08:11.701Z,44.5130
2022-11-11T03:09:13.898Z,44.4730
2022-11-11T03:10:16.214Z,44.4850
2022-11-11T03:11:18.477Z,44.4670
2022-11-11T03:12:20.812Z,44.4670
2022-11-11T03:13:21.446Z,44.4610
2022-11-11T03:14:23.210Z,44.4450
2022-11-11T03:15:25.449Z,44.3990
2022-11-11T03:16:27.880Z,44.4230
2022-11-11T03:18:17.572Z,44.5190
2022-11-11T03:19:19.809Z,44.4850
2022-11-11T03:22:52.627Z,44.4810
2022-11-11T03:22:57.152Z,44.4790
2022-11-11T03:23:44.067Z,44.4750
2022-11-11T03:24:46.377Z,44.4230
2022-11-11T03:25:46.512Z,44.3930
2022-11-11T03:26:48.792Z,44.3990
2022-11-11T03:27:51.096Z,44.3870
2022-11-11T03:28:53.511Z,44.3810
2022-11-11T03:29:55.672Z,44.3610
2022-11-11T03:31:01.838Z,44.3870
2022-11-11T03:32:00.366Z,44.3890
2022-11-11T03:33:00.504Z,44.3430
2022-11-11T03:34:02.803Z,44.3250
2022-11-11T03:35:05.117Z,44.2750
2022-11-11T03:36:07.424Z,44.2630
2022-11-11T03:37:09.789Z,44.2810
2022-11-11T03:38:12.102Z,44.3190
2022-11-11T03:39:12.311Z,44.3490
2022-11-11T03:40:14.653Z,44.3930
2022-11-11T03:41:16.945Z,44.3730
2022-11-11T03:42:19.303Z,44.3610
2022-11-11T03:43:22.032Z,44.3310
2022-11-11T03:44:24.002Z,44.3250
2022-11-11T03:45:24.041Z,44.3310
2022-11-11T03:46:26.336Z,44.3150
2022-11-11T03:47:28.771Z,44.3250
2022-11-11T03:48:30.934Z,44.3730
2022-11-11T03:49:33.210Z,44.3770
2022-11-11T03:50:35.509Z,44.4550
2022-11-11T03:51:37.695Z,44.4390
2022-11-11T03:52:37.852Z,44.3370
2022-11-11T03:53:40.114Z,44.4010
2022-11-11T03:54:42.414Z,44.3950
2022-11-11T03:55:44.703Z,44.3890
2022-11-11T03:56:46.967Z,44.3590
2022-11-11T03:57:49.389Z,44.4290
2022-11-11T03:58:49.390Z,44.3930
2022-11-11T03:59:51.797Z,44.3090
2022-11-11T04:00:53.948Z,44.3130
2022-11-11T04:01:56.327Z,44.2940
2022-11-11T04:02:58.661Z,44.3650
2022-11-11T04:04:00.775Z,44.3870
2022-11-11T04:05:03.031Z,44.3770
2022-11-11T04:06:05.316Z,44.3160
2022-11-11T04:07:05.552Z,44.3710
2022-11-11T04:08:07.861Z,44.2970
2022-11-11T04:09:10.149Z,44.2880
2022-11-11T04:10:12.466Z,44.2730
2022-11-11T04:11:14.794Z,44.2700
2022-11-11T04:12:17.020Z,44.2420
2022-11-11T04:13:17.288Z,44.3020
2022-11-11T04:14:19.453Z,44.2910
2022-11-11T04:15:21.871Z,44.2700
2022-11-11T04:16:24.054Z,44.3040
2022-11-11T04:17:26.344Z,44.3590
2022-11-11T04:18:28.770Z,44.3330
2022-11-11T04:19:30.948Z,44.3590
2022-11-11T04:20:31.122Z,44.3130
2022-11-11T04:21:31.337Z,44.3330
2022-11-11T04:22:33.708Z,44.2800
2022-11-11T04:23:36.072Z,44.2820
2022-11-11T04:24:38.427Z,44.3070
2022-11-11T04:25:41.617Z,44.2260
2022-11-11T04:26:40.953Z,44.1680
2022-11-11T04:27:43.295Z,44.1780
2022-11-11T04:28:45.647Z,44.2300
2022-11-11T04:29:48.014Z,44.2260
2022-11-11T04:30:48.270Z,44.1960
2022-11-11T04:31:50.538Z,44.1960
2022-11-11T04:32:52.861Z,44.1740
2022-11-11T04:33:55.376Z,44.1620
2022-11-11T04:34:55.467Z,44.1620
2022-11-11T04:35:57.812Z,44.1540
2022-11-11T04:37:00.123Z,44.2920
2022-11-11T04:38:02.414Z,44.2080
2022-11-11T04:39:04.755Z,44.1460
2022-11-11T04:40:07.034Z,44.1160
2022-11-11T04:41:07.139Z,44.1280
2022-11-11T04:42:09.404Z,44.1660
2022-11-11T04:43:11.628Z,44.2200
2022-11-11T04:44:13.956Z,44.2020
2022-11-11T04:45:16.184Z,44.1740
2022-11-11T04:46:18.601Z,44.1620
2022-11-11T04:47:20.751Z,44.1860
2022-11-11T04:48:23.020Z,44.1780
2022-11-11T04:49:23.202Z,44.1840
2022-11-11T04:50:25.417Z,44.2360
2022-11-11T04:51:27.670Z,44.2640
2022-11-11T04:52:29.925Z,44.2670
2022-11-11T04:53:32.233Z,44.2640
2022-11-11T04:54:34.592Z,44.2920
2022-11-11T04:55:36.874Z,44.2760
2022-11-11T04:56:39.178Z,44.4030
2022-11-11T04:57:39.344Z,44.4490
2022-11-11T04:58:41.665Z,44.3490
2022-11-11T04:59:44.117Z,44.3320
2022-11-11T05:00:46.301Z,44.3750
2022-11-11T05:01:48.690Z,44.4650
2022-11-11T05:02:50.893Z,44.3950
2022-11-11T05:03:51.061Z,44.3490
2022-11-11T05:04:53.548Z,44.3430
2022-11-11T05:05:55.763Z,44.2930
2022-11-11T05:06:59.878Z,44.2690
2022-11-11T05:07:58.328Z,44.3990
2022-11-11T05:09:00.687Z,44.4630
2022-11-11T05:10:03.326Z,44.5120
2022-11-11T05:11:05.376Z,44.5300
2022-11-11T05:12:07.723Z,44.6840
2022-11-11T05:13:07.918Z,44.7760
2022-11-11T05:15:25.790Z,45.0630
2022-11-11T05:16:27.690Z,45.0840
2022-11-11T05:17:30.079Z,45.0430
2022-11-11T05:18:32.264Z,45.0530
2022-11-11T05:19:34.551Z,45.1310
2022-11-11T05:20:38.655Z,45.2110
2022-11-11T05:21:37.059Z,45.3720
2022-11-11T05:22:39.391Z,45.4580
2022-11-11T05:23:41.737Z,45.4600
2022-11-11T05:24:44.076Z,45.4240
2022-11-11T05:25:44.289Z,45.4480
2022-11-11T05:26:46.597Z,45.5720
2022-11-11T05:27:48.933Z,45.5620
2022-11-11T05:28:51.261Z,45.4800
2022-11-11T05:29:53.561Z,45.5140
2022-11-11T05:30:53.828Z,45.5260
2022-11-11T05:31:55.975Z,45.5620
2022-11-11T05:32:58.375Z,45.5160
2022-11-11T05:34:00.544Z,45.5800
2022-11-11T05:35:02.827Z,45.6480
2022-11-11T05:36:05.139Z,45.6870
2022-11-11T05:37:07.431Z,45.6040
2022-11-11T05:38:07.610Z,45.4810
2022-11-11T05:39:09.953Z,45.4930
2022-11-11T05:40:12.244Z,45.5090
2022-11-11T05:41:14.629Z,45.6020
2022-11-11T05:42:16.897Z,45.6880
2022-11-11T05:43:19.146Z,45.6360
2022-11-11T05:44:21.417Z,45.5920
2022-11-11T05:45:21.555Z,45.5350
2022-11-11T05:46:23.952Z,45.5150
2022-11-11T05:47:26.089Z,45.5570
2022-11-11T05:48:28.567Z,45.6100
2022-11-11T05:49:30.757Z,45.6240
2022-11-11T05:50:33.125Z,45.6320
2022-11-11T05:51:39.000Z,45.5950
2022-11-11T05:52:37.842Z,45.6600
2022-11-11T05:53:40.190Z,45.7040
2022-11-11T05:54:42.528Z,45.7720
2022-11-11T05:55:42.715Z,45.7000
2022-11-11T05:56:45.134Z,45.7000
2022-11-11T05:57:47.341Z,45.7000
2022-11-11T05:58:50.838Z,45.7240
2022-11-11T05:59:51.949Z,45.7840
2022-11-11T06:00:54.265Z,45.7840
2022-11-11T06:01:54.623Z,45.7860
2022-11-11T06:02:56.830Z,45.7920
2022-11-11T06:03:59.269Z,45.8180
2022-11-11T06:05:01.438Z,45.8360
2022-11-11T06:06:03.766Z,45.7900
2022-11-11T06:07:06.095Z,45.7340
2022-11-11T06:08:08.286Z,45.6930
2022-11-11T06:09:10.596Z,45.6930
2022-11-11T06:10:10.738Z,45.6980
2022-11-11T06:11:13.007Z,45.7380
2022-11-11T06:12:15.400Z,45.7320
2022-11-11T06:13:17.550Z,45.7130
2022-11-11T06:14:19.852Z,45.6530
2022-11-11T06:15:22.153Z,45.6490
2022-11-11T06:16:22.307Z,45.6490
2022-11-11T06:17:24.625Z,45.6470
2022-11-11T06:18:30.933Z,45.6590
2022-11-11T06:19:29.289Z,45.7010
2022-11-11T06:20:31.487Z,45.6070
2022-11-11T06:21:33.806Z,45.6660
2022-11-11T06:22:33.993Z,45.6610
2022-11-11T06:23:36.259Z,45.6810
2022-11-11T06:24:38.600Z,45.5930
2022-11-11T06:25:40.855Z,45.5850
2022-11-11T06:26:43.159Z,45.6030
2022-11-11T06:27:45.513Z,45.6420
2022-11-11T06:28:45.619Z,45.6250
2022-11-11T06:29:47.905Z,45.5650
2022-11-11T06:30:51.538Z,45.5850
2022-11-11T06:31:52.526Z,45.5990
2022-11-11T06:32:54.991Z,45.5290
2022-11-11T06:33:57.183Z,45.5290
2022-11-11T06:34:57.432Z,45.5230
2022-11-11T06:35:59.626Z,45.4670
2022-11-11T06:37:01.935Z,45.5050
2022-11-11T06:38:04.375Z,45.4950
2022-11-11T06:39:06.536Z,45.5330
2022-11-11T06:40:08.786Z,45.5730
2022-11-11T06:41:11.067Z,45.5850
2022-11-11T06:42:11.216Z,45.5390
2022-11-11T06:43:13.562Z,45.5390
2022-11-11T06:44:14.716Z,45.6500
2022-11-11T06:45:17.072Z,45.8950
2022-11-11T06:46:19.409Z,45.9680
2022-11-11T06:47:21.744Z,45.9670
2022-11-11T06:48:24.252Z,45.9670
2022-11-11T06:49:26.457Z,46.0260
2022-11-11T06:50:28.958Z,46.0540
2022-11-11T06:51:31.197Z,46.0820
2022-11-11T06:52:31.412Z,46.0820
2022-11-11T06:53:33.897Z,46.0660
2022-11-11T06:54:36.163Z,46.0240
2022-11-11T06:55:36.352Z,46.0360
2022-11-11T06:56:38.716Z,46.0320
2022-11-11T06:57:41.072Z,46.0140
2022-11-11T06:58:41.406Z,46.0020
2022-11-11T06:59:43.632Z,45.9960
2022-11-11T07:00:46.007Z,45.9960
2022-11-11T07:01:48.319Z,46.0700
2022-11-11T07:02:50.697Z,46.0720
2022-11-11T07:03:53.062Z,46.0080
2022-11-11T07:04:53.248Z,45.9470
2022-11-11T07:05:58.961Z,46.0080
2022-11-11T07:06:57.949Z,45.9780
2022-11-11T07:08:00.251Z,45.9470
2022-11-11T07:09:02.591Z,45.9920
2022-11-11T07:10:04.887Z,45.9210
2022-11-11T07:11:12.541Z,45.9290
2022-11-11T07:12:07.451Z,45.9390
2022-11-11T07:13:09.815Z,45.9410
2022-11-11T07:14:12.221Z,45.9150
2022-11-11T07:15:14.496Z,45.8890
2022-11-11T07:16:16.824Z,45.9070
2022-11-11T07:17:19.138Z,45.9660
2022-11-11T07:18:21.695Z,46.0000
2022-11-11T07:19:23.969Z,46.0820
2022-11-11T07:20:25.961Z,46.0140
2022-11-11T07:21:26.207Z,45.9900
2022-11-11T07:22:28.416Z,45.9230
2022-11-11T07:23:30.731Z,45.9170
2022-11-11T07:24:33.086Z,45.8930
2022-11-11T07:25:35.323Z,45.8860
2022-11-11T07:26:37.564Z,45.8360
2022-11-11T07:27:39.852Z,45.7840
2022-11-11T07:28:40.016Z,45.7580
2022-11-11T07:29:42.300Z,45.7520
2022-11-11T07:30:44.525Z,45.7460
2022-11-11T07:31:46.780Z,45.7460
2022-11-11T07:32:46.927Z,45.7100
2022-11-11T07:33:49.235Z,45.7460
2022-11-11T07:34:51.553Z,45.7400
2022-11-11T07:35:53.776Z,45.6140
2022-11-11T07:36:54.039Z,45.0550
2022-11-11T07:37:56.214Z,45.4200
2022-11-11T07:38:58.523Z,45.6060
2022-11-11T07:40:00.876Z,45.7630
2022-11-11T07:41:03.145Z,45.7490
2022-11-11T07:42:05.472Z,45.7020
2022-11-11T07:43:07.743Z,45.6820
2022-11-11T07:44:48.062Z,45.5210
2022-11-11T07:45:44.789Z,45.3100
2022-11-11T07:46:46.913Z,45.2160
2022-11-11T07:47:49.179Z,45.1000
2022-11-11T07:48:51.395Z,45.0720
2022-11-11T07:49:53.632Z,44.9840
2022-11-11T07:50:55.924Z,44.9220
2022-11-11T07:51:56.108Z,44.8970
2022-11-11T07:52:58.247Z,44.8300
2022-11-11T07:54:00.487Z,44.8700
2022-11-11T07:55:02.683Z,44.8740
2022-11-11T07:56:04.985Z,44.8920
2022-11-11T07:57:07.210Z,44.9280
2022-11-11T07:58:10.514Z,44.9280
2022-11-11T07:59:12.753Z,44.9820
2022-11-11T08:00:14.999Z,45.0880
2022-11-11T08:01:17.394Z,45.2140
2022-11-11T08:02:19.557Z,45.2290
2022-11-11T08:03:19.722Z,45.3170
2022-11-11T08:04:22.036Z,45.2870
2022-11-11T08:05:24.361Z,45.3290
2022-11-11T08:06:26.727Z,45.3730
2022-11-11T08:07:29.120Z,45.3850
2022-11-11T08:08:31.279Z,45.3470
2022-11-11T08:09:33.613Z,45.3130
2022-11-11T08:10:35.948Z,45.3170
2022-11-11T08:11:38.420Z,45.3390
2022-11-11T08:12:40.645Z,45.3270
2022-11-11T08:13:42.993Z,45.3450
2022-11-11T08:14:45.325Z,45.3050
2022-11-11T08:15:45.507Z,45.3350
2022-11-11T08:16:47.808Z,45.3730
2022-11-11T08:17:50.033Z,45.3470
2022-11-11T08:18:52.315Z,45.2810
2022-11-11T08:19:52.503Z,45.3170
2022-11-11T08:20:55.449Z,45.3330
2022-11-11T08:21:57.239Z,45.2950
2022-11-11T08:23:32.986Z,45.2870
2022-11-11T08:25:03.886Z,45.3890
2022-11-11T08:26:04.394Z,45.3410
2022-11-11T08:27:06.836Z,45.3390
2022-11-11T08:28:08.955Z,45.3110
2022-11-11T08:29:11.237Z,45.2650
2022-11-11T08:30:11.378Z,45.2170
2022-11-11T08:31:13.668Z,45.1820
2022-11-11T08:32:15.963Z,45.1880
2022-11-11T08:33:32.695Z,45.1960
2022-11-11T08:34:18.360Z,45.2670
2022-11-11T08:35:20.654Z,45.2490
2022-11-11T08:36:22.951Z,45.1880
2022-11-11T08:37:25.239Z,45.1700
2022-11-11T08:38:27.626Z,45.1960
2022-11-11T08:39:29.780Z,45.1800
2022-11-11T08:40:32.010Z,45.1770
2022-11-11T08:41:34.273Z,45.1300
2022-11-11T08:42:36.700Z,45.1480
2022-11-11T08:43:38.881Z,45.1120
2022-11-11T08:44:41.159Z,45.1300
2022-11-11T08:45:43.387Z,45.1740
2022-11-11T08:46:45.649Z,45.1770
2022-11-11T08:47:47.928Z,45.1340
2022-11-11T08:48:48.073Z,45.1300
2022-11-11T08:49:50.374Z,45.0880
2022-11-11T08:50:52.716Z,45.0840
2022-11-11T08:51:55.028Z,45.0660
2022-11-11T08:52:57.373Z,45.0440
2022-11-11T08:53:59.765Z,45.0400
2022-11-11T08:55:01.979Z,45.0380
2022-11-11T08:56:02.167Z,45.0340
2022-11-11T08:57:04.498Z,45.0680
2022-11-11T08:58:06.972Z,45.0600
2022-11-11T08:59:07.031Z,45.0560
2022-11-11T09:00:09.384Z,45.0400
2022-11-11T09:01:11.824Z,45.0220
2022-11-11T09:02:13.977Z,45.0220
2022-11-11T09:03:16.328Z,45.0280
2022-11-11T09:04:51.552Z,45.0280
2022-11-11T09:05:20.617Z,44.9640
2022-11-11T09:06:22.859Z,44.9640
2022-11-11T09:07:25.070Z,44.9320
2022-11-11T09:08:27.389Z,44.9580
2022-11-11T09:09:59.308Z,44.9980
2022-11-11T09:11:01.969Z,44.7620
2022-11-11T09:12:04.184Z,44.6860
2022-11-11T09:13:06.430Z,44.6120
2022-11-11T09:14:06.700Z,44.5060
2022-11-11T09:15:08.836Z,44.5680
2022-11-11T09:16:11.156Z,44.5500
2022-11-11T09:17:13.481Z,44.4800
2022-11-11T09:18:15.804Z,44.5440
2022-11-11T09:19:18.173Z,44.5220
2022-11-11T09:20:23.670Z,44.4720
2022-11-11T09:21:20.624Z,44.4120
2022-11-11T09:22:22.945Z,44.3580
2022-11-11T09:23:25.644Z,44.3210
2022-11-11T09:24:27.709Z,44.3820
2022-11-11T09:25:30.027Z,44.3390
2022-11-11T09:26:30.061Z,44.3240
2022-11-11T09:27:32.389Z,44.2450
2022-11-11T09:28:34.688Z,44.2510
2022-11-11T09:29:37.074Z,44.2230
2022-11-11T09:30:39.356Z,44.2590
2022-11-11T09:31:45.221Z,44.2310
2022-11-11T09:32:41.741Z,44.1890
2022-11-11T09:33:44.057Z,44.1670
2022-11-11T09:34:46.455Z,44.1830
2022-11-11T09:35:48.653Z,44.1830
2022-11-11T09:36:50.973Z,44.2070
2022-11-11T09:37:53.251Z,44.2110
2022-11-11T09:38:55.567Z,44.1550
2022-11-11T09:39:55.755Z,44.1790
2022-11-11T09:40:58.181Z,44.1690
2022-11-11T09:42:06.319Z,44.1090
2022-11-11T09:43:00.494Z,44.1270
2022-11-11T09:44:02.770Z,44.1170
2022-11-11T09:45:05.063Z,44.1050
2022-11-11T09:46:07.342Z,44.0830
2022-11-11T09:47:09.648Z,44.1330
2022-11-11T09:48:11.977Z,44.0600
2022-11-11T09:49:12.133Z,44.0320
2022-11-11T09:50:14.573Z,43.9880
2022-11-11T09:51:16.731Z,43.8450
2022-11-11T09:52:19.031Z,43.8710
2022-11-11T09:53:21.301Z,43.9520
2022-11-11T09:54:23.531Z,43.9660
2022-11-11T09:55:25.779Z,43.9700
2022-11-11T09:56:33.161Z,44.0460
2022-11-11T09:57:28.120Z,44.0730
2022-11-11T09:58:30.386Z,43.8570
2022-11-11T09:59:32.644Z,43.7850
2022-11-11T10:00:34.974Z,43.7910
2022-11-11T10:01:37.157Z,43.8290
2022-11-11T10:02:39.419Z,43.8290
2022-11-11T10:03:41.669Z,43.8170
2022-11-11T10:04:43.939Z,43.8290
2022-11-11T10:05:44.082Z,43.8640
2022-11-11T10:06:46.359Z,43.8530
2022-11-11T10:07:48.601Z,43.8070
2022-11-11T10:08:50.837Z,43.7510
2022-11-11T10:09:53.066Z,43.7090
2022-11-11T10:10:55.444Z,43.7610
2022-11-11T10:11:57.714Z,43.7730
2022-11-11T10:12:59.872Z,43.7430
2022-11-11T10:14:02.174Z,43.7430
2022-11-11T10:15:02.343Z,43.7180
2022-11-11T10:16:04.683Z,43.7230
2022-11-11T10:17:06.950Z,43.7670
2022-11-11T10:18:17.131Z,43.7230
2022-11-11T10:18:22.150Z,43.7330
2022-11-11T10:19:22.328Z,43.7390
2022-11-11T10:20:24.598Z,43.6940
2022-11-11T10:21:26.928Z,43.6700
2022-11-11T10:22:29.191Z,43.7550
2022-11-11T10:23:31.459Z,43.6940
2022-11-11T10:24:37.729Z,43.7730
2022-11-11T10:25:35.993Z,43.9320
2022-11-11T10:26:36.171Z,44.0890
2022-11-11T10:27:38.552Z,44.1670
2022-11-11T10:28:40.735Z,42.9930
2022-11-11T10:29:43.084Z,42.3420
2022-11-11T10:30:45.440Z,43.0050
2022-11-11T10:31:47.831Z,43.0240
2022-11-11T10:32:48.036Z,43.6040
2022-11-11T10:33:50.431Z,44.7510
2022-11-11T10:34:52.830Z,45.8040
2022-11-11T10:35:55.231Z,46.6730
2022-11-11T10:36:55.522Z,47.4660
2022-11-11T10:37:57.883Z,47.6930
2022-11-11T10:39:00.273Z,47.0660
2022-11-11T10:40:02.700Z,46.7090
2022-11-11T10:41:02.938Z,46.4860
2022-11-11T10:42:05.358Z,46.1090
2022-11-11T10:43:07.774Z,45.7320
2022-11-11T10:44:10.008Z,45.4710
2022-11-11T10:45:12.373Z,45.2880
2022-11-11T10:46:12.598Z,45.0890
2022-11-11T10:47:14.878Z,44.7890
2022-11-11T10:48:17.166Z,44.5810
2022-11-11T10:49:19.679Z,44.4490
2022-11-11T10:50:21.898Z,44.3670
2022-11-11T10:51:22.107Z,44.3190
2022-11-11T10:52:24.583Z,44.1280
2022-11-11T10:53:26.821Z,44.0460
2022-11-11T10:54:29.133Z,43.9720
2022-11-11T10:56:25.232Z,44.0100
2022-11-11T10:57:27.494Z,43.9140
2022-11-11T10:58:29.891Z,43.8170
2022-11-11T10:59:32.080Z,43.7140
2022-11-11T11:00:36.362Z,43.6960
2022-11-11T11:01:36.658Z,43.7250
2022-11-11T11:02:39.078Z,43.6280
2022-11-11T11:03:39.125Z,43.6120
2022-11-11T11:04:41.455Z,43.5960
2022-11-11T11:05:43.776Z,43.5130
2022-11-11T11:06:46.174Z,43.5160
2022-11-11T11:07:48.561Z,43.4670
2022-11-11T11:08:48.614Z,43.4830
2022-11-11T11:09:50.939Z,43.4670
2022-11-11T11:10:53.388Z,43.4430
2022-11-11T11:11:55.618Z,43.4490
2022-11-11T11:12:58.091Z,43.4270
2022-11-11T11:13:58.243Z,43.4110
2022-11-11T11:15:00.456Z,43.4480
2022-11-11T11:16:02.791Z,43.3930
2022-11-11T11:17:05.119Z,43.3830
2022-11-11T11:18:07.481Z,43.3220
2022-11-11T11:19:07.640Z,43.3430
2022-11-11T11:20:09.959Z,43.3100
2022-11-11T11:21:12.272Z,43.2870
2022-11-11T11:22:14.595Z,43.2710
2022-11-11T11:23:16.955Z,43.1980
2022-11-11T11:24:19.236Z,43.1810
2022-11-11T11:25:19.407Z,43.2540
2022-11-11T11:26:21.719Z,43.2040
2022-11-11T11:27:24.040Z,43.2100
2022-11-11T11:28:26.553Z,43.1740
2022-11-11T11:29:28.795Z,43.2000
2022-11-11T11:30:30.966Z,43.1650
2022-11-11T11:31:31.120Z,43.2320
2022-11-11T11:32:33.398Z,43.2160
2022-11-11T11:33:35.680Z,43.2100
2022-11-11T11:34:37.957Z,43.1980
2022-11-11T11:35:40.246Z,43.1910
2022-11-11T11:36:42.570Z,43.1700
2022-11-11T11:37:42.742Z,43.2060
2022-11-11T11:38:45.093Z,43.2120
2022-11-11T11:39:47.350Z,43.2730
2022-11-11T11:40:49.621Z,43.1840
2022-11-11T11:41:51.919Z,43.2280
2022-11-11T11:42:54.271Z,43.1960
2022-11-11T11:43:54.513Z,43.2160
2022-11-11T11:44:56.945Z,43.2080
2022-11-11T11:46:01.487Z,43.2350
2022-11-11T11:47:01.469Z,43.2410
2022-11-11T11:48:29.972Z,43.1810
2022-11-11T11:49:06.125Z,43.2290
2022-11-11T11:50:06.258Z,43.2110
2022-11-11T11:51:08.588Z,43.1810
2022-11-11T11:52:10.887Z,43.2110
2022-11-11T11:53:13.197Z,43.2170
2022-11-11T11:54:15.643Z,43.2730
2022-11-11T11:55:17.793Z,43.2940
2022-11-11T11:56:17.942Z,43.1640
2022-11-11T11:57:20.288Z,43.2350
2022-11-11T11:58:23.077Z,43.1640
2022-11-11T11:59:25.035Z,43.1950
2022-11-11T12:00:27.375Z,43.1970
2022-11-11T12:01:27.450Z,43.2570
2022-11-11T12:02:29.901Z,43.2370
2022-11-11T12:03:32.107Z,43.2370
2022-11-11T12:04:37.237Z,43.2150
2022-11-11T12:05:36.562Z,43.2620
2022-11-11T12:06:38.819Z,43.2430
2022-11-11T12:07:40.974Z,43.3260
2022-11-11T12:08:41.063Z,43.3080
2022-11-11T12:09:43.330Z,43.2030
2022-11-11T12:10:45.510Z,43.2760
2022-11-11T12:11:47.762Z,43.2400
2022-11-11T12:12:50.037Z,43.3100
2022-11-11T12:13:52.317Z,43.4610
2022-11-11T12:14:54.624Z,43.5140
2022-11-11T12:15:57.069Z,43.5600
2022-11-11T12:16:57.165Z,43.6280
2022-11-11T12:17:59.526Z,43.5360
2022-11-11T12:19:01.883Z,43.5480
2022-11-11T12:20:04.250Z,43.4800
2022-11-11T12:21:04.441Z,43.4860
2022-11-11T12:22:06.792Z,43.4210
2022-11-11T12:23:09.108Z,43.3650
2022-11-11T12:24:11.469Z,43.4880
2022-11-11T12:25:13.974Z,43.4330
2022-11-11T12:26:14.036Z,43.3310
2022-11-11T12:27:16.397Z,43.4090
2022-11-11T12:28:18.765Z,43.3380
2022-11-11T12:29:21.130Z,43.2760
2022-11-11T12:30:23.482Z,43.3380
2022-11-11T12:31:23.779Z,43.3710
2022-11-11T12:32:25.993Z,42.0890
2022-11-11T12:33:28.346Z,43.0310
2022-11-11T12:34:30.712Z,43.3490
2022-11-11T12:35:33.086Z,43.5210
2022-11-11T12:36:33.248Z,43.4750